Fairlie, United Kingdom
Current Conditions -  °F | °C
As of 2:20 PM on Thursday 27 Nov 2014 (Local Time) from EGPF Reporting Station
Haze Haze  
Wind Chill: 43°   Ceiling: 1700
Heat Index: 46°   Visibility: 1.5mi
Dew Point: 45°   Wind: 7mph
Humidity: 93%   Direction: 70°ENE
Pressure: 29.59"   Gusts: NA
Location:  55.76°N, 4.86°W
Report Text: EGPF 271420Z AUTO 07006KT 2500 BR FEW005 BKN017 OVC027 08/07 Q1002 RERA
Loading
Personal Weather Stations






























Interactive Weather Map New forecast layout! Learn more

10-Day Weather Forecast

Advertisements
Track Severe Weather on mobile